Time;durP1;ratioP1;P1;durP2;ratioP2;P2;SDS_P1;SDS_P2;PMS_P1;PMS_P2;Temp;Humidity;BMP_temperature;BMP_pressure;BME280_temperature;BME280_humidity;BME280_pressure;Samples;Min_cycle;Max_cycle;Signal;HPM_P1;HPM_P2
2022/12/03 00:00:29;;;;;;;117.05;47.53;;;;;;;-3.83;66.59;101995.31;6092325;23;20026;-72
2022/12/03 00:02:56;;;;;;;118.70;48.63;;;;;;;-3.70;66.60;101981.91;6093322;23;20033;-72
2022/12/03 00:05:23;;;;;;;112.38;47.35;;;;;;;-3.80;66.88;101989.97;6089712;23;20056;-72
2022/12/03 00:07:49;;;;;;;125.43;50.95;;;;;;;-3.90;67.18;101992.84;6090263;23;20030;-72
2022/12/03 00:10:16;;;;;;;108.35;45.92;;;;;;;-3.91;66.65;101989.38;6091339;23;20018;-72
2022/12/03 00:12:43;;;;;;;115.57;48.40;;;;;;;-3.80;66.78;101986.50;6090932;23;20026;-71
2022/12/03 00:15:09;;;;;;;104.57;45.00;;;;;;;-3.86;66.77;101984.00;6092987;23;20032;-71
2022/12/03 00:17:36;;;;;;;112.90;48.42;;;;;;;-3.70;66.82;101984.53;6092085;23;20027;-71
2022/12/03 00:20:05;;;;;;;112.18;46.10;;;;;;;-3.59;66.13;101985.97;6093217;23;20032;-72
2022/12/03 00:22:31;;;;;;;109.28;47.03;;;;;;;-3.58;66.12;101982.47;6120683;23;20037;-72
2022/12/03 00:24:58;;;;;;;109.28;46.60;;;;;;;-3.73;66.05;101982.81;6121129;23;20097;-72
2022/12/03 00:27:24;;;;;;;106.38;45.50;;;;;;;-3.66;66.41;101980.91;6121423;23;20033;-72
2022/12/03 00:29:51;;;;;;;111.72;48.35;;;;;;;-3.63;65.90;101983.47;6121063;23;20092;-73
2022/12/03 00:32:17;;;;;;;106.30;47.13;;;;;;;-3.85;66.36;101980.53;6121747;23;20062;-72
2022/12/03 00:34:44;;;;;;;104.47;45.55;;;;;;;-3.66;65.85;101986.16;6121812;23;20030;-72
2022/12/03 00:37:10;;;;;;;105.47;45.50;;;;;;;-3.93;66.69;101982.44;6121023;23;20319;-72
2022/12/03 00:39:37;;;;;;;103.20;44.28;;;;;;;-3.91;66.54;101978.91;6121798;23;20477;-72
2022/12/03 00:42:04;;;;;;;109.32;46.45;;;;;;;-3.65;65.85;101980.03;6122997;23;20327;-71
2022/12/03 00:44:30;;;;;;;107.38;47.42;;;;;;;-3.73;66.17;101976.72;6093744;23;20105;-71
2022/12/03 00:46:57;;;;;;;107.35;46.42;;;;;;;-3.87;66.17;101972.69;6092623;23;20495;-71
2022/12/03 00:49:23;;;;;;;107.00;43.67;;;;;;;-3.87;66.43;101980.53;6092000;23;20058;-73
2022/12/03 00:51:50;;;;;;;112.50;46.13;;;;;;;-3.81;66.34;101971.69;6093160;23;20036;-72
2022/12/03 00:54:16;;;;;;;109.95;45.22;;;;;;;-3.81;66.22;101969.06;6091966;23;20018;-71
2022/12/03 00:56:43;;;;;;;109.05;47.60;;;;;;;-3.78;66.11;101971.59;6092190;23;20054;-73
2022/12/03 00:59:09;;;;;;;101.13;45.22;;;;;;;-3.52;65.22;101970.94;6093057;23;20053;-72
2022/12/03 01:01:36;;;;;;;101.10;42.78;;;;;;;-3.73;65.32;101974.97;6092278;23;20455;-70
2022/12/03 01:04:02;;;;;;;103.57;45.63;;;;;;;-3.94;66.13;101971.09;6093184;23;20023;-73
2022/12/03 01:06:29;;;;;;;108.18;47.50;;;;;;;-3.67;65.50;101980.06;6091885;23;20325;-73
2022/12/03 01:08:56;;;;;;;105.68;46.15;;;;;;;-3.89;65.67;101981.50;6092430;23;20097;-73
2022/12/03 01:11:37;;;;;;;106.03;44.30;;;;;;;-3.65;65.41;101982.66;6092955;23;20025;-73
2022/12/03 01:14:12;;;;;;;103.88;45.92;;;;;;;-3.76;65.41;101982.91;6092831;23;20356;-73
2022/12/03 01:16:39;;;;;;;100.75;46.05;;;;;;;-3.61;65.33;101976.44;6092960;23;20072;-73
2022/12/03 01:19:07;;;;;;;98.97;45.08;;;;;;;-3.67;65.29;101985.31;6094757;23;20026;-72
2022/12/03 01:21:34;;;;;;;105.30;44.25;;;;;;;-3.74;65.38;101985.50;6082447;23;20022;-72
2022/12/03 01:24:00;;;;;;;95.38;42.25;;;;;;;-3.93;65.93;101983.34;6094446;23;20033;-72
2022/12/03 01:26:27;;;;;;;97.63;45.35;;;;;;;-3.74;65.41;101977.63;6094966;23;20348;-72
2022/12/03 01:28:53;;;;;;;96.90;44.25;;;;;;;-3.68;65.24;101980.97;6095168;23;20018;-71
2022/12/03 01:34:05;;;;;;;97.85;45.20;;;;;;;-3.64;65.25;101984.38;6094035;23;20019;-71
2022/12/03 01:36:33;;;;;;;105.38;47.92;;;;;;;-3.60;64.94;101986.88;6096215;23;20026;-71
2022/12/03 01:39:00;;;;;;;105.50;46.83;;;;;;;-3.77;64.88;101978.56;6095046;23;20440;-71
2022/12/03 01:41:28;;;;;;;110.00;48.53;;;;;;;-3.75;64.80;101979.41;6094395;23;20033;-73
2022/12/03 01:43:56;;;;;;;104.43;45.63;;;;;;;-3.84;64.73;101979.63;6095461;23;20109;-71
2022/12/03 01:46:30;;;;;;;104.38;48.13;;;;;;;-3.62;64.68;101977.31;6094529;23;20018;-71
2022/12/03 01:48:56;;;;;;;107.43;47.60;;;;;;;-3.57;64.82;101981.56;6094443;23;20038;-72
2022/12/03 01:51:23;;;;;;;99.28;45.97;;;;;;;-3.78;64.62;101972.47;6093687;23;20075;-72
2022/12/03 01:53:50;;;;;;;110.65;49.97;;;;;;;-3.50;64.86;101966.53;6093176;23;20359;-72
2022/12/03 01:56:17;;;;;;;105.85;46.50;;;;;;;-3.41;64.13;101975.91;6094727;23;20057;-72
2022/12/03 01:58:45;;;;;;;105.43;48.28;;;;;;;-3.65;64.27;101975.66;6094037;23;20033;-71
2022/12/03 02:01:15;;;;;;;108.15;49.15;;;;;;;-3.55;64.45;101969.28;6094267;23;20014;-72
2022/12/03 02:03:43;;;;;;;108.25;49.65;;;;;;;-3.32;63.97;101979.16;6092890;23;20030;-71
2022/12/03 02:07:12;;;;;;;106.05;49.78;;;;;;;-3.55;64.07;101965.75;6093863;23;20132;-71
2022/12/03 02:09:38;;;;;;;108.50;47.92;;;;;;;-3.81;64.50;101966.44;6117689;23;20014;-72
2022/12/03 02:12:05;;;;;;;111.63;49.13;;;;;;;-3.80;65.17;101973.38;6122555;23;20018;-72
2022/12/03 02:14:31;;;;;;;106.43;48.67;;;;;;;-3.88;65.01;101965.72;6123287;23;20022;-71
2022/12/03 02:16:59;;;;;;;103.65;45.70;;;;;;;-3.87;64.58;101966.56;6123771;23;20097;-72
2022/12/03 02:19:28;;;;;;;113.57;50.78;;;;;;;-3.56;64.47;101964.06;6122124;23;20018;-72
2022/12/03 02:22:06;;;;;;;111.05;50.38;;;;;;;-3.47;63.62;101969.06;6123000;23;20026;-72
2022/12/03 02:25:12;;;;;;;106.57;48.67;;;;;;;-3.48;64.51;101972.59;6123283;23;20331;-72
2022/12/03 02:27:40;;;;;;;107.70;46.90;;;;;;;-3.80;64.62;101969.00;6103484;23;20060;-72
2022/12/03 02:30:08;;;;;;;102.22;47.35;;;;;;;-3.59;64.32;101970.22;6124508;23;20029;-72
2022/12/03 02:32:36;;;;;;;106.00;47.13;;;;;;;-3.81;64.69;101964.66;6123717;23;20105;-72
2022/12/03 02:35:03;;;;;;;103.78;48.80;;;;;;;-3.76;64.78;101964.53;6123534;23;20053;-73
2022/12/03 02:37:33;;;;;;;108.18;46.90;;;;;;;-3.73;64.71;101972.34;6123288;23;20470;-71
2022/12/03 02:40:05;;;;;;;111.95;46.17;;;;;;;-3.85;64.72;101965.66;6123279;23;20032;-72
2022/12/03 02:42:35;;;;;;;104.32;46.75;;;;;;;-3.64;64.26;101971.25;6120394;23;20026;-72
2022/12/03 02:45:07;;;;;;;108.70;47.63;;;;;;;-3.78;64.84;101968.97;6123921;23;20358;-72
2022/12/03 02:47:39;;;;;;;99.38;44.95;;;;;;;-3.69;64.61;101970.50;6122864;23;20037;-72
2022/12/03 02:50:08;;;;;;;99.45;46.10;;;;;;;-3.65;64.65;101966.94;6123168;23;20029;-72
2022/12/03 02:52:34;;;;;;;113.38;46.72;;;;;;;-3.64;63.98;101964.25;6123132;23;20026;-72
2022/12/03 02:55:04;;;;;;;115.78;48.45;;;;;;;-3.62;64.39;101966.81;6121972;23;20454;-72
2022/12/03 02:57:31;;;;;;;109.85;46.25;;;;;;;-3.47;64.20;101976.09;6123410;23;20463;-72
2022/12/03 02:59:58;;;;;;;107.18;47.10;;;;;;;-3.46;63.91;101976.03;6123727;23;20096;-72
2022/12/03 03:02:27;;;;;;;98.95;44.25;;;;;;;-3.48;63.58;101969.09;6123524;23;20359;-72
2022/12/03 03:04:55;;;;;;;99.20;44.78;;;;;;;-3.66;64.08;101968.66;6122905;23;20042;-72
2022/12/03 03:07:22;;;;;;;106.53;47.42;;;;;;;-3.77;64.51;101968.94;6123216;23;20447;-72
2022/12/03 03:09:49;;;;;;;106.13;46.95;;;;;;;-3.75;64.82;101968.06;6123630;23;20127;-73
2022/12/03 03:12:16;;;;;;;102.50;46.20;;;;;;;-3.67;64.68;101966.09;6123112;23;20042;-71
2022/12/03 03:14:42;;;;;;;102.50;45.80;;;;;;;-3.73;64.37;101963.63;6123473;23;20033;-71
2022/12/03 03:17:09;;;;;;;107.25;47.00;;;;;;;-3.83;64.62;101963.88;6123268;23;20030;-73
2022/12/03 03:19:35;;;;;;;106.75;46.65;;;;;;;-3.59;64.18;101969.38;6122515;23;20117;-71
2022/12/03 03:22:02;;;;;;;110.32;46.95;;;;;;;-3.65;64.05;101961.69;6122122;23;20037;-72
2022/12/03 03:24:28;;;;;;;102.25;44.83;;;;;;;-3.41;63.83;101961.06;6122558;23;20045;-72
2022/12/03 03:26:55;;;;;;;112.07;45.38;;;;;;;-3.92;64.68;101952.72;6096017;23;20026;-71
2022/12/03 03:29:21;;;;;;;111.78;44.65;;;;;;;-3.94;65.05;101958.00;6116129;23;20022;-72
2022/12/03 03:31:48;;;;;;;101.50;45.15;;;;;;;-3.61;64.35;101952.84;6122529;23;20022;-71
2022/12/03 03:34:15;;;;;;;103.35;44.97;;;;;;;-3.71;64.26;101951.34;6123274;23;20355;-71
2022/12/03 03:36:43;;;;;;;102.78;45.05;;;;;;;-3.89;64.73;101950.91;6122415;23;20029;-73
2022/12/03 03:39:09;;;;;;;99.18;44.40;;;;;;;-3.80;64.67;101950.66;6122396;23;20017;-72
2022/12/03 03:41:37;;;;;;;98.38;43.13;;;;;;;-3.77;64.76;101947.94;6123781;23;20026;-71
2022/12/03 03:44:06;;;;;;;109.88;47.67;;;;;;;-3.82;64.57;101947.22;6121050;23;20459;-71
2022/12/03 03:46:34;;;;;;;106.95;47.13;;;;;;;-3.81;64.65;101938.44;6123116;23;20101;-72
2022/12/03 03:49:03;;;;;;;99.63;45.08;;;;;;;-3.77;64.96;101941.84;6122497;23;20033;-72
2022/12/03 03:51:31;;;;;;;97.32;43.65;;;;;;;-3.61;64.56;101940.56;6121890;23;20028;-71
2022/12/03 03:53:58;;;;;;;98.43;45.72;;;;;;;-3.58;63.95;101937.88;6120864;23;20371;-72
2022/12/03 03:56:25;;;;;;;112.55;44.97;;;;;;;-3.62;64.14;101936.25;6123209;23;20044;-71
2022/12/03 03:58:53;;;;;;;110.03;46.15;;;;;;;-3.68;64.56;101935.53;6121617;23;20030;-71
2022/12/03 04:01:19;;;;;;;101.13;44.13;;;;;;;-3.83;64.66;101927.16;6121961;23;20029;-71
2022/12/03 04:03:46;;;;;;;98.88;44.45;;;;;;;-3.63;64.13;101933.63;6122098;23;20022;-72
2022/12/03 04:06:13;;;;;;;99.03;45.10;;;;;;;-3.78;64.40;101924.41;6123429;23;20021;-72
2022/12/03 04:08:39;;;;;;;104.30;45.20;;;;;;;-3.57;63.99;101915.13;6121561;23;20105;-73
2022/12/03 04:13:51;;;;;;;97.43;43.97;;;;;;;-3.47;63.84;101921.00;6122201;23;20036;-72
2022/12/03 04:16:18;;;;;;;102.18;44.92;;;;;;;-3.72;63.88;101920.75;6098083;23;20098;-72
2022/12/03 04:18:44;;;;;;;97.85;44.20;;;;;;;-3.44;63.64;101915.69;6121695;23;20026;-72
2022/12/03 04:24:05;;;;;;;98.18;43.33;;;;;;;-3.62;63.88;101914.38;6122717;23;20371;-72
2022/12/03 04:29:18;;;;;;;118.13;44.30;;;;;;;-3.83;64.89;101916.66;6116203;23;20017;-72
2022/12/03 04:37:14;;;;;;;109.47;44.92;;;;;;;-3.68;64.15;101906.69;6108607;23;20028;-72
2022/12/03 04:39:41;;;;;;;99.18;44.35;;;;;;;-3.70;64.22;101917.19;6097130;23;20028;-71
2022/12/03 04:42:07;;;;;;;103.10;44.63;;;;;;;-3.70;63.90;101916.34;6109920;23;20029;-72
2022/12/03 04:44:37;;;;;;;99.65;45.25;;;;;;;-3.68;64.01;101904.06;6122064;23;20470;-73
2022/12/03 04:47:10;;;;;;;107.60;45.25;;;;;;;-3.66;64.09;101907.47;6121244;23;20450;-73
2022/12/03 04:49:41;;;;;;;100.03;43.10;;;;;;;-3.93;64.31;101909.03;6098140;23;20065;-72
2022/12/03 04:52:09;;;;;;;75.95;34.35;;;;;;;-3.88;64.63;101912.44;6121248;23;20030;-72
2022/12/03 04:54:36;;;;;;;105.45;43.70;;;;;;;-3.65;64.25;101911.84;6121689;23;20073;-71
2022/12/03 04:57:03;;;;;;;95.40;43.88;;;;;;;-3.77;64.36;101910.38;6121995;23;20025;-71
2022/12/03 04:59:30;;;;;;;101.72;43.15;;;;;;;-3.75;64.34;101908.59;6121544;23;20018;-71
2022/12/03 05:01:57;;;;;;;110.43;44.90;;;;;;;-3.73;64.30;101901.53;6121619;23;20359;-73
2022/12/03 05:04:24;;;;;;;109.70;44.88;;;;;;;-3.73;64.60;101901.53;6120814;23;20022;-72
2022/12/03 05:06:53;;;;;;;99.20;44.10;;;;;;;-3.82;64.99;101907.03;6121923;23;20026;-70
2022/12/03 05:09:20;;;;;;;102.38;45.00;;;;;;;-3.80;65.24;101903.44;6123728;23;20033;-73
2022/12/03 05:11:46;;;;;;;103.88;45.30;;;;;;;-3.72;64.96;101903.28;6121941;23;20022;-71
2022/12/03 05:14:13;;;;;;;98.55;44.55;;;;;;;-3.60;64.83;101891.59;6111725;23;20030;-72
2022/12/03 05:16:39;;;;;;;99.82;44.55;;;;;;;-3.86;65.44;101890.53;6120359;23;20022;-72
2022/12/03 05:19:07;;;;;;;108.32;45.17;;;;;;;-3.78;65.34;101890.31;6121838;23;20463;-73
2022/12/03 05:21:34;;;;;;;101.47;45.05;;;;;;;-3.72;65.14;101887.53;6120841;23;20022;-72
2022/12/03 05:24:01;;;;;;;96.43;44.63;;;;;;;-3.55;64.72;101889.69;6120920;23;20021;-71
2022/12/03 05:26:28;;;;;;;100.28;44.75;;;;;;;-3.54;64.91;101886.19;6122259;23;20018;-72
2022/12/03 05:28:54;;;;;;;99.40;44.65;;;;;;;-3.74;65.55;101891.09;6120867;23;20025;-71
2022/12/03 05:31:21;;;;;;;99.82;44.25;;;;;;;-3.91;65.83;101889.75;6121696;23;20021;-73
2022/12/03 05:33:48;;;;;;;98.25;43.25;;;;;;;-3.88;66.10;101891.44;6122648;23;20362;-72
2022/12/03 05:36:14;;;;;;;97.20;44.33;;;;;;;-3.77;66.08;101890.25;6122290;23;20439;-72
2022/12/03 05:38:41;;;;;;;105.28;45.38;;;;;;;-3.66;66.00;101891.75;6121840;23;20036;-71
2022/12/03 05:42:52;;;;;;;104.75;46.00;;;;;;;-3.75;65.87;101886.75;6121953;23;20036;-72
2022/12/03 05:43:54;;;;;;;112.78;45.67;;;;;;;-3.79;66.23;101897.31;6121277;23;20033;-70
2022/12/03 05:46:21;;;;;;;100.55;45.38;;;;;;;-3.74;66.30;101891.97;6122205;23;20028;-72
2022/12/03 05:48:47;;;;;;;99.25;45.72;;;;;;;-3.90;66.91;101890.63;6122069;23;20018;-72
2022/12/03 05:51:14;;;;;;;104.18;47.50;;;;;;;-3.65;66.78;101886.47;6121947;23;20033;-72
2022/12/03 05:53:40;;;;;;;102.15;47.00;;;;;;;-3.75;67.08;101874.50;6119809;23;20347;-72
2022/12/03 05:56:07;;;;;;;104.85;46.05;;;;;;;-3.98;67.00;101877.72;6121332;23;20022;-72
2022/12/03 05:58:33;;;;;;;97.88;45.65;;;;;;;-3.95;67.56;101877.63;6121000;23;20024;-72
2022/12/03 06:01:00;;;;;;;100.40;47.55;;;;;;;-3.82;67.65;101876.44;6121045;23;20022;-72
2022/12/03 06:03:26;;;;;;;109.88;47.35;;;;;;;-4.02;67.85;101879.53;6121761;23;20324;-72
2022/12/03 06:05:53;;;;;;;123.22;51.20;;;;;;;-3.83;68.08;101877.34;6123383;23;20029;-72
2022/12/03 06:08:20;;;;;;;111.55;49.10;;;;;;;-3.79;68.54;101883.38;6122691;23;20028;-72
2022/12/03 06:10:46;;;;;;;117.43;50.05;;;;;;;-3.85;68.82;101873.88;6123161;23;20455;-72
2022/12/03 06:13:13;;;;;;;102.70;48.00;;;;;;;-4.03;69.34;101887.47;6123488;23;20029;-72
2022/12/03 06:15:39;;;;;;;114.53;50.17;;;;;;;-4.12;69.35;101885.06;6121460;23;20403;-72
2022/12/03 06:18:10;;;;;;;113.45;49.17;;;;;;;-4.25;70.04;101880.09;6122674;23;20042;-72
2022/12/03 06:20:36;;;;;;;111.38;50.03;;;;;;;-4.19;70.20;101884.34;6121945;23;20133;-71
2022/12/03 06:23:03;;;;;;;119.78;51.28;;;;;;;-3.87;69.63;101888.78;6122481;23;20092;-71
2022/12/03 06:25:29;;;;;;;117.65;51.13;;;;;;;-3.95;69.80;101880.25;6054875;23;20401;-71
2022/12/03 06:27:56;;;;;;;118.30;51.25;;;;;;;-3.79;69.59;101876.34;6086281;23;20019;-71
2022/12/03 06:30:22;;;;;;;105.70;48.33;;;;;;;-3.84;69.97;101877.34;6094941;23;20473;-71
2022/12/03 06:32:49;;;;;;;110.57;50.63;;;;;;;-4.03;70.01;101885.69;6093421;23;20022;-71
2022/12/03 06:35:15;;;;;;;117.18;51.42;;;;;;;-4.12;70.31;101887.69;6094141;23;20029;-71
2022/12/03 06:37:42;;;;;;;109.20;49.13;;;;;;;-4.28;70.83;101888.06;6093364;23;20033;-70
2022/12/03 06:40:09;;;;;;;122.70;52.22;;;;;;;-4.07;70.96;101891.91;6094090;23;20324;-71
2022/12/03 06:42:35;;;;;;;119.80;50.58;;;;;;;-3.85;70.25;101888.75;6093985;23;20026;-71
2022/12/03 06:45:02;;;;;;;114.20;51.92;;;;;;;-3.60;69.88;101883.72;6094283;23;20022;-71
2022/12/03 06:47:28;;;;;;;115.90;51.75;;;;;;;-3.62;69.66;101883.78;6094209;23;20014;-71
2022/12/03 06:49:55;;;;;;;121.78;48.95;;;;;;;-4.00;70.02;101895.25;6093847;23;20029;-71
2022/12/03 06:52:21;;;;;;;122.68;53.33;;;;;;;-3.75;69.66;101886.75;6093563;23;20018;-72
2022/12/03 06:54:48;;;;;;;115.38;49.80;;;;;;;-4.09;70.20;101883.22;6093485;23;20028;-71
2022/12/03 06:57:15;;;;;;;117.43;51.38;;;;;;;-4.04;70.79;101893.56;6092992;23;20033;-72
2022/12/03 06:59:41;;;;;;;120.43;51.72;;;;;;;-3.86;70.86;101880.03;6081598;23;20037;-71
2022/12/03 07:02:09;;;;;;;127.65;51.83;;;;;;;-3.99;70.74;101888.25;6094597;23;20026;-71
2022/12/03 07:04:36;;;;;;;111.63;50.25;;;;;;;-4.17;71.29;101884.28;6094077;23;20018;-73
2022/12/03 07:07:10;;;;;;;124.30;51.50;;;;;;;-4.04;71.54;101880.47;6093525;23;20023;-72
2022/12/03 07:09:36;;;;;;;119.10;48.88;;;;;;;-4.20;71.92;101880.00;6094232;23;20029;-72
2022/12/03 07:12:03;;;;;;;129.50;53.47;;;;;;;-4.35;72.05;101883.81;6093528;23;20027;-73
2022/12/03 07:14:29;;;;;;;120.28;52.28;;;;;;;-4.27;73.09;101883.66;6092708;23;20026;-71
2022/12/03 07:16:56;;;;;;;125.10;51.53;;;;;;;-4.16;72.60;101875.56;6093634;23;20025;-73
2022/12/03 07:19:22;;;;;;;124.70;51.58;;;;;;;-4.26;72.78;101880.16;6093559;23;20053;-71
2022/12/03 07:21:57;;;;;;;124.03;54.28;;;;;;;-4.24;73.00;101886.22;6123055;23;20076;-70
2022/12/03 07:24:23;;;;;;;127.88;53.17;;;;;;;-4.17;73.08;101882.56;6123230;23;20037;-72
2022/12/03 07:26:50;;;;;;;134.02;55.70;;;;;;;-4.08;73.13;101884.94;6121322;23;20024;-72
2022/12/03 07:29:16;;;;;;;134.10;56.50;;;;;;;-3.95;73.02;101882.03;6121853;23;20025;-72
2022/12/03 07:31:43;;;;;;;129.02;56.10;;;;;;;-3.92;72.81;101885.44;6122463;23;20040;-72
2022/12/03 07:34:10;;;;;;;126.80;54.78;;;;;;;-4.05;72.79;101882.25;6121029;23;20026;-73
2022/12/03 07:36:36;;;;;;;124.53;53.50;;;;;;;-4.39;73.27;101884.81;6120907;23;20469;-73
2022/12/03 07:39:03;;;;;;;125.05;52.97;;;;;;;-4.49;73.94;101883.28;6094448;23;20421;-72
2022/12/03 07:41:30;;;;;;;133.40;54.85;;;;;;;-4.28;73.56;101874.06;6122575;23;20518;-71
2022/12/03 07:43:56;;;;;;;138.63;56.55;;;;;;;-4.05;72.79;101878.75;6122418;23;20355;-70
2022/12/03 07:46:23;;;;;;;145.60;57.10;;;;;;;-4.20;73.31;101885.25;6123681;23;20020;-72
2022/12/03 07:48:49;;;;;;;134.70;56.90;;;;;;;-4.14;73.36;101881.59;6123662;23;20018;-71
2022/12/03 07:51:16;;;;;;;136.10;57.67;;;;;;;-4.03;72.63;101893.56;6122337;23;20402;-72
2022/12/03 07:53:42;;;;;;;135.05;57.03;;;;;;;-4.10;73.00;101880.66;6122068;23;20041;-71
2022/12/03 07:56:09;;;;;;;146.57;58.53;;;;;;;-4.03;72.44;101880.44;6122901;23;20022;-71
2022/12/03 07:58:36;;;;;;;129.77;55.40;;;;;;;-3.97;72.11;101881.19;6121797;23;20100;-71
2022/12/03 08:01:02;;;;;;;132.68;54.97;;;;;;;-4.22;72.19;101878.31;6121283;23;20029;-71
2022/12/03 08:03:29;;;;;;;126.00;55.20;;;;;;;-4.05;72.34;101881.38;6122226;23;20021;-71
2022/12/03 08:05:55;;;;;;;127.68;51.78;;;;;;;-4.14;72.45;101872.00;6122868;23;20026;-71
2022/12/03 08:08:22;;;;;;;126.20;54.47;;;;;;;-4.04;72.45;101873.47;6122860;23;20022;-72
2022/12/03 08:10:49;;;;;;;129.55;56.75;;;;;;;-3.86;72.22;101868.66;6120937;23;20026;-72
2022/12/03 08:13:17;;;;;;;142.30;56.90;;;;;;;-4.28;72.42;101867.09;6123011;23;20045;-72
2022/12/03 08:15:44;;;;;;;133.45;55.15;;;;;;;-4.13;72.05;101863.22;6122109;23;20047;-71
2022/12/03 08:18:16;;;;;;;136.15;57.25;;;;;;;-4.11;71.69;101869.28;6122653;23;20025;-72
2022/12/03 08:20:45;;;;;;;134.40;54.85;;;;;;;-4.27;72.72;101863.56;6088378;23;20033;-72
2022/12/03 08:23:15;;;;;;;129.50;52.55;;;;;;;-4.22;73.21;101862.59;6123082;23;20026;-72
2022/12/03 08:25:43;;;;;;;130.10;53.70;;;;;;;-4.17;72.94;101863.31;6122481;23;20041;-72
2022/12/03 08:28:17;;;;;;;140.75;57.97;;;;;;;-4.05;72.86;101863.03;6122840;23;20021;-72
2022/12/03 08:30:55;;;;;;;137.23;55.92;;;;;;;-4.08;73.20;101860.50;6120998;23;20048;-71
2022/12/03 08:33:26;;;;;;;140.18;54.70;;;;;;;-4.14;72.81;101858.00;6122624;23;20101;-71
2022/12/03 08:35:53;;;;;;;150.80;60.05;;;;;;;-4.14;73.39;101858.00;6121399;23;20109;-71
2022/12/03 08:38:22;;;;;;;134.38;56.42;;;;;;;-4.23;73.50;101858.25;6121614;23;20098;-71
2022/12/03 08:40:51;;;;;;;143.18;56.63;;;;;;;-4.08;73.29;101861.34;6120960;23;20030;-71
2022/12/03 08:43:25;;;;;;;141.07;56.67;;;;;;;-4.29;73.69;101859.25;6122953;23;20100;-71
2022/12/03 08:45:56;;;;;;;139.90;56.78;;;;;;;-4.12;73.72;101866.72;6121554;23;20022;-71
2022/12/03 08:48:27;;;;;;;;;;;;;;;-4.15;73.77;101866.78;6121949;23;20026;-71
2022/12/03 08:50:56;;;;;;;120.85;48.45;;;;;;;-4.21;73.79;101866.94;6122819;23;19923;-72
2022/12/03 08:54:01;;;;;;;152.80;58.00;;;;;;;-4.27;74.40;101860.94;6121953;23;20050;-72
2022/12/03 08:56:31;;;;;;;140.27;56.17;;;;;;;-3.95;73.85;101859.28;6112379;23;20439;-72
2022/12/03 08:59:15;;;;;;;140.05;57.85;;;;;;;-3.89;73.45;101853.88;6122354;23;20362;-72
2022/12/03 09:01:45;;;;;;;147.77;59.15;;;;;;;-3.83;73.30;101847.59;6099225;23;20456;-72
2022/12/03 09:04:44;;;;;;;142.15;56.53;;;;;;;-3.85;73.33;101858.16;6107090;23;20021;-72
2022/12/03 09:07:11;;;;;;;143.32;57.50;;;;;;;-3.59;72.78;101853.97;6119054;23;20073;-73
2022/12/03 09:09:37;;;;;;;141.57;58.15;;;;;;;-3.84;73.20;101857.25;6121064;23;20017;-73
2022/12/03 09:12:04;;;;;;;154.98;57.88;;;;;;;-4.04;73.24;101862.13;6107145;23;20021;-72
2022/12/03 09:14:30;;;;;;;146.80;58.80;;;;;;;-3.92;73.73;101856.59;6093764;23;20026;-69
2022/12/03 09:16:57;;;;;;;139.77;56.72;;;;;;;-3.80;73.09;101863.25;6123709;23;20024;-71
2022/12/03 09:19:25;;;;;;;143.07;56.80;;;;;;;-3.89;73.16;101851.28;6119273;23;20108;-71
2022/12/03 09:21:53;;;;;;;136.00;54.97;;;;;;;-3.81;73.52;101851.91;6121065;23;20021;-71
2022/12/03 09:24:20;;;;;;;148.48;60.17;;;;;;;-3.93;73.50;101844.38;6088516;23;20455;-71
2022/12/03 09:26:46;;;;;;;139.80;56.90;;;;;;;-3.75;73.32;101842.19;6120597;23;20096;-72
2022/12/03 09:29:13;;;;;;;142.15;56.75;;;;;;;-3.80;73.46;101847.53;6121096;23;20359;-71
2022/12/03 09:31:40;;;;;;;157.90;58.60;;;;;;;-3.89;73.50;101838.16;6121358;23;20028;-71
2022/12/03 09:34:07;;;;;;;142.98;55.92;;;;;;;-3.90;73.72;101839.03;6120630;23;20018;-72
2022/12/03 09:36:34;;;;;;;146.95;56.38;;;;;;;-3.90;73.79;101835.56;6119804;23;20021;-71
2022/12/03 09:39:00;;;;;;;147.38;57.40;;;;;;;-3.74;73.25;101831.63;6125103;23;20017;-72
2022/12/03 09:41:27;;;;;;;144.18;57.85;;;;;;;-3.61;73.42;101837.44;6124128;23;20038;-72
2022/12/03 09:43:55;;;;;;;157.50;59.17;;;;;;;-3.55;73.36;101832.00;6121937;23;20403;-71
2022/12/03 09:46:33;;;;;;;146.38;57.42;;;;;;;-3.57;72.77;101837.28;6122645;23;20025;-71
2022/12/03 09:49:01;;;;;;;146.40;57.20;;;;;;;-3.83;73.42;101832.75;6123509;23;20022;-72
2022/12/03 09:51:31;;;;;;;135.50;54.58;;;;;;;-4.19;73.67;101844.19;6121552;23;20473;-72
2022/12/03 09:54:00;;;;;;;137.32;55.20;;;;;;;-4.06;73.97;101829.88;6124392;23;20022;-72
2022/12/03 09:56:26;;;;;;;150.55;57.03;;;;;;;-3.96;74.20;101825.25;6116992;23;20485;-71
2022/12/03 09:58:53;;;;;;;140.82;54.30;;;;;;;-4.14;74.21;101822.22;6114523;23;20375;-71
2022/12/03 10:01:19;;;;;;;157.15;56.15;;;;;;;-3.94;74.50;101821.69;6122255;23;20355;-72
2022/12/03 10:03:49;;;;;;;141.48;54.83;;;;;;;-4.21;74.54;101820.63;6121908;23;20045;-71
2022/12/03 10:06:18;;;;;;;155.38;60.50;;;;;;;-3.96;74.43;101818.25;6121353;23;20025;-71
2022/12/03 10:08:52;;;;;;;153.45;57.50;;;;;;;-3.96;74.44;101812.16;6122729;23;20022;-71
2022/12/03 10:11:21;;;;;;;156.60;58.58;;;;;;;-3.98;74.24;101812.19;6110761;23;20028;-71
2022/12/03 10:13:48;;;;;;;146.43;55.80;;;;;;;-3.96;74.22;101813.00;6120961;23;20033;-71
2022/12/03 10:16:17;;;;;;;157.50;58.63;;;;;;;-3.98;73.81;101806.94;6122582;23;20462;-70
2022/12/03 10:18:48;;;;;;;153.02;57.08;;;;;;;-3.87;74.10;101812.75;6122386;23;20455;-70
2022/12/03 10:21:44;;;;;;;151.43;56.33;;;;;;;-3.67;73.60;101812.22;6123752;23;20043;-72
2022/12/03 10:24:29;;;;;;;151.13;54.13;;;;;;;-3.68;73.62;101805.25;6087133;23;20026;-72
2022/12/03 10:27:01;;;;;;;132.65;53.05;;;;;;;-3.71;72.93;101802.72;6092121;23;20366;-71
2022/12/03 10:29:34;;;;;;;144.65;54.38;;;;;;;-3.78;73.18;101803.78;6122504;23;20026;-71
2022/12/03 10:32:06;;;;;;;148.48;54.72;;;;;;;-3.83;72.96;101800.41;6123324;23;20446;-72
2022/12/03 10:34:35;;;;;;;134.73;52.42;;;;;;;-3.87;73.63;101804.03;6120200;23;20351;-70
2022/12/03 10:37:13;;;;;;;150.05;56.60;;;;;;;-3.69;72.85;101797.41;6121765;23;20459;-70
2022/12/03 10:39:56;;;;;;;153.23;55.17;;;;;;;-4.03;72.99;101795.72;6119294;23;20022;-71
2022/12/03 10:42:25;;;;;;;139.18;54.10;;;;;;;-3.87;73.53;101796.16;6124052;23;20032;-71
2022/12/03 10:45:10;;;;;;;140.15;56.20;;;;;;;-3.83;73.39;101803.94;6124230;23;21294;-72
2022/12/03 10:47:37;;;;;;;145.30;52.67;;;;;;;-3.83;73.25;101785.56;6117444;23;20025;-71
2022/12/03 10:50:13;;;;;;;148.98;51.33;;;;;;;-3.86;72.90;101796.13;6122401;23;20025;-70
2022/12/03 10:52:39;;;;;;;144.02;52.03;;;;;;;-3.70;72.59;101790.47;6095820;23;20354;-72
2022/12/03 10:55:10;;;;;;;147.88;53.83;;;;;;;-3.50;72.67;101793.38;6123802;23;20048;-71
2022/12/03 10:57:38;;;;;;;140.77;51.92;;;;;;;-3.64;72.31;101798.16;6120255;23;20025;-72
2022/12/03 11:00:18;;;;;;;138.50;52.95;;;;;;;-3.58;72.20;101791.00;6122174;23;20022;-72
2022/12/03 11:02:46;;;;;;;144.35;52.90;;;;;;;-3.64;72.32;101785.06;6085390;23;20408;-72
2022/12/03 11:05:28;;;;;;;138.98;52.13;;;;;;;-3.80;73.03;101782.84;6123436;23;20463;-72
2022/12/03 11:07:55;;;;;;;144.70;51.97;;;;;;;-3.75;73.15;101781.88;6122594;23;20022;-72
2022/12/03 11:10:22;;;;;;;142.52;52.00;;;;;;;-3.99;73.43;101781.63;6093649;23;20023;-72
2022/12/03 11:13:26;;;;;;;148.60;54.65;;;;;;;-3.94;73.33;101782.34;6111609;23;20026;-71
2022/12/03 11:15:53;;;;;;;149.25;52.22;;;;;;;-3.61;72.94;101779.72;6120042;23;20029;-72
2022/12/03 11:18:35;;;;;;;145.02;54.28;;;;;;;-3.63;72.63;101779.75;6120574;23;20014;-71
2022/12/03 11:21:10;;;;;;;141.10;51.35;;;;;;;-3.82;72.92;101774.16;6123216;23;20109;-71
2022/12/03 11:23:45;;;;;;;150.48;53.33;;;;;;;-3.60;72.80;101769.19;6115499;23;20375;-71
2022/12/03 11:26:17;;;;;;;142.50;52.03;;;;;;;-3.43;72.45;101767.84;6121237;23;20022;-71